Time;durP1;ratioP1;P1;durP2;ratioP2;P2;SDS_P1;SDS_P2;PMS_P1;PMS_P2;Temp;Humidity;BMP_temperature;BMP_pressure;BME280_temperature;BME280_humidity;BME280_pressure;Samples;Min_cycle;Max_cycle;Signal;HPM_P1;HPM_P2
2022/12/24 00:04:22;;;;;;;4.65;1.42;;;14.40;99.90;;;;;;10131833;28;20024;-68
2022/12/24 00:09:13;;;;;;;7.63;1.25;;;14.40;99.90;;;;;;10109247;28;20099;-67
2022/12/24 00:14:03;;;;;;;3.80;1.67;;;14.30;99.90;;;;;;10128136;28;20055;-62
2022/12/24 00:18:54;;;;;;;3.22;1.08;;;14.30;99.90;;;;;;10141023;28;20479;-58
2022/12/24 00:23:45;;;;;;;10.43;1.60;;;14.20;99.90;;;;;;10140069;28;20123;-63
2022/12/24 00:28:35;;;;;;;3.65;1.20;;;14.20;99.90;;;;;;10140244;28;20025;-60
2022/12/24 00:33:26;;;;;;;4.97;1.80;;;14.20;99.90;;;;;;10139288;28;20360;-62
2022/12/24 00:38:16;;;;;;;8.65;1.90;;;14.20;99.90;;;;;;10140708;28;20212;-56
2022/12/24 00:43:07;;;;;;;4.32;1.52;;;14.20;99.90;;;;;;10133981;28;20040;-66
2022/12/24 00:47:58;;;;;;;5.20;1.30;;;14.30;99.90;;;;;;10140026;28;20041;-59
2022/12/24 00:52:48;;;;;;;10.25;2.25;;;14.30;99.90;;;;;;10141423;28;20683;-66
2022/12/24 00:57:39;;;;;;;7.25;1.77;;;14.30;99.90;;;;;;10138223;28;20025;-59
2022/12/24 01:02:30;;;;;;;6.25;1.98;;;14.20;99.90;;;;;;10139131;28;20060;-58
2022/12/24 01:07:20;;;;;;;6.95;1.23;;;14.20;99.90;;;;;;10138104;28;20042;-55
2022/12/24 01:12:11;;;;;;;2.42;1.17;;;14.20;99.90;;;;;;10129577;28;20104;-58
2022/12/24 01:17:02;;;;;;;5.53;1.50;;;14.10;99.90;;;;;;10139304;28;20429;-64
2022/12/24 01:21:53;;;;;;;10.32;1.65;;;14.10;99.90;;;;;;10138214;28;20029;-58
2022/12/24 01:26:43;;;;;;;6.97;2.60;;;14.10;99.90;;;;;;10132549;28;20040;-57
2022/12/24 01:31:34;;;;;;;4.38;1.38;;;14.10;99.90;;;;;;10138389;28;20032;-57
2022/12/24 01:36:25;;;;;;;8.82;1.73;;;14.10;99.90;;;;;;10138070;28;20033;-57
2022/12/24 01:46:30;;;;;;;4.13;1.20;;;14.10;99.90;;;;;;10128863;28;20040;-65
2022/12/24 01:51:38;;;;;;;5.45;2.50;;;14.10;99.90;;;;;;10134807;28;20039;-58
2022/12/24 01:56:31;;;;;;;6.00;1.30;;;14.10;99.90;;;;;;10137790;28;20070;-58
2022/12/24 02:01:23;;;;;;;2.97;1.25;;;14.10;99.90;;;;;;10136872;28;20036;-57
2022/12/24 02:06:15;;;;;;;6.18;2.10;;;14.10;99.90;;;;;;10131929;28;20558;-57
2022/12/24 02:11:11;;;;;;;3.00;1.30;;;14.10;99.90;;;;;;10123021;28;20066;-55
2022/12/24 02:16:17;;;;;;;4.57;2.47;;;14.00;99.90;;;;;;10136863;28;20016;-65
2022/12/24 02:21:39;;;;;;;4.47;1.53;;;14.00;99.90;;;;;;10134931;28;20016;-66
2022/12/24 02:26:59;;;;;;;7.45;1.40;;;14.00;99.90;;;;;;10136449;28;20348;-70
2022/12/24 02:32:01;;;;;;;5.15;1.80;;;14.00;99.90;;;;;;10135769;28;20050;-70
2022/12/24 02:37:11;;;;;;;7.00;1.67;;;13.90;99.90;;;;;;10134838;28;20031;-66
2022/12/24 02:42:05;;;;;;;7.97;1.63;;;13.90;99.90;;;;;;10136077;28;20020;-68
2022/12/24 02:46:58;;;;;;;3.40;1.85;;;13.80;99.90;;;;;;10136440;28;20498;-71
2022/12/24 02:51:48;;;;;;;3.63;1.30;;;13.80;99.90;;;;;;10134340;28;20052;-63
2022/12/24 02:57:16;;;;;;;5.40;1.45;;;13.70;99.90;;;;;;10129971;28;20029;-64
2022/12/24 03:02:31;;;;;;;7.03;1.38;;;13.80;99.90;;;;;;10125499;28;20065;-70
2022/12/24 03:07:37;;;;;;;4.13;2.72;;;13.80;99.90;;;;;;10134382;28;20043;-68
2022/12/24 03:12:41;;;;;;;4.10;1.60;;;13.70;99.90;;;;;;10125966;28;20475;-70
2022/12/24 03:17:35;;;;;;;5.78;2.42;;;13.70;99.90;;;;;;10134587;28;20082;-63
2022/12/24 03:22:26;;;;;;;6.43;1.80;;;13.70;99.90;;;;;;10134832;28;20029;-61
2022/12/24 03:27:17;;;;;;;6.72;1.60;;;13.70;99.90;;;;;;10135735;28;20062;-67
2022/12/24 03:32:08;;;;;;;5.95;1.38;;;13.60;99.90;;;;;;10134598;28;20025;-65
2022/12/24 03:36:59;;;;;;;4.57;1.20;;;13.60;99.90;;;;;;10143007;28;20029;-67
2022/12/24 03:41:49;;;;;;;5.93;1.15;;;13.70;99.90;;;;;;10142945;28;20069;-63
2022/12/24 03:46:40;;;;;;;6.75;1.58;;;13.70;99.90;;;;;;10142353;28;20053;-71
2022/12/24 03:51:32;;;;;;;5.07;1.65;;;13.70;99.90;;;;;;10142846;28;20103;-67
2022/12/24 03:56:23;;;;;;;3.83;1.20;;;13.70;99.90;;;;;;10142874;28;20258;-57
2022/12/24 04:01:17;;;;;;;3.50;1.25;;;13.70;99.90;;;;;;10138455;28;20052;-58
2022/12/24 04:06:16;;;;;;;6.85;1.67;;;13.80;99.90;;;;;;10135121;28;20044;-63
2022/12/24 04:11:09;;;;;;;6.53;1.70;;;13.70;99.90;;;;;;10110306;28;20025;-61
2022/12/24 04:16:06;;;;;;;6.50;1.52;;;13.70;99.90;;;;;;10134321;28;20378;-70
2022/12/24 04:20:57;;;;;;;4.32;1.38;;;13.70;99.90;;;;;;10133713;28;20029;-58
2022/12/24 04:25:48;;;;;;;5.95;1.35;;;13.60;99.90;;;;;;10131525;28;20041;-55
2022/12/24 04:30:39;;;;;;;3.72;1.20;;;13.60;99.90;;;;;;10140587;28;20023;-57
2022/12/24 04:35:30;;;;;;;4.97;1.65;;;13.60;99.90;;;;;;10140647;28;20021;-60
2022/12/24 04:40:21;;;;;;;4.15;1.48;;;13.70;99.90;;;;;;10138998;28;20035;-56
2022/12/24 04:45:11;;;;;;;8.30;1.48;;;13.60;99.90;;;;;;10139197;28;20035;-57
2022/12/24 04:50:02;;;;;;;4.45;1.60;;;13.60;99.90;;;;;;10141192;28;20336;-66
2022/12/24 04:54:53;;;;;;;7.82;1.63;;;13.60;99.90;;;;;;10134750;28;20032;-55
2022/12/24 04:59:44;;;;;;;7.80;1.63;;;13.60;99.90;;;;;;10140390;28;20048;-60
2022/12/24 05:04:34;;;;;;;10.15;1.30;;;13.60;99.90;;;;;;10140841;28;20051;-57
2022/12/24 05:09:25;;;;;;;8.57;1.40;;;13.60;99.90;;;;;;10126257;28;20178;-57
2022/12/24 05:14:16;;;;;;;6.13;1.80;;;13.60;99.90;;;;;;10139649;28;20521;-61
2022/12/24 05:19:06;;;;;;;6.68;1.40;;;13.60;99.90;;;;;;10138714;28;20021;-60
2022/12/24 05:29:07;;;;;;;6.28;1.73;;;13.60;99.90;;;;;;10132571;28;20103;-60
2022/12/24 05:33:58;;;;;;;9.82;1.45;;;13.50;99.90;;;;;;10138534;28;20501;-57
2022/12/24 05:38:49;;;;;;;6.78;1.60;;;13.40;99.90;;;;;;10135248;28;20090;-56
2022/12/24 05:43:40;;;;;;;5.07;1.40;;;13.30;99.90;;;;;;10138326;28;20043;-61
2022/12/24 05:48:31;;;;;;;6.32;1.70;;;13.30;99.90;;;;;;10138646;28;20025;-59
2022/12/24 05:53:22;;;;;;;7.32;2.13;;;13.20;99.90;;;;;;10135015;28;20039;-60
2022/12/24 05:58:12;;;;;;;6.30;1.63;;;13.10;99.90;;;;;;10137158;28;20564;-55
2022/12/24 06:03:03;;;;;;;2.97;0.98;;;13.10;99.90;;;;;;10131727;28;20036;-60
2022/12/24 06:07:54;;;;;;;5.47;1.60;;;13.00;99.90;;;;;;10120154;28;20030;-59
2022/12/24 06:12:45;;;;;;;3.92;1.30;;;13.00;99.90;;;;;;10116945;28;20036;-57
2022/12/24 06:17:35;;;;;;;1.98;1.40;;;12.90;99.90;;;;;;10126016;28;20047;-57
2022/12/24 06:22:26;;;;;;;4.82;1.40;;;12.90;99.90;;;;;;10138855;28;20036;-57
2022/12/24 06:27:18;;;;;;;4.18;1.25;;;12.80;99.90;;;;;;10137576;28;20036;-59
2022/12/24 06:32:08;;;;;;;3.83;1.38;;;12.80;99.90;;;;;;10134671;28;20031;-58
2022/12/24 06:36:59;;;;;;;5.22;1.98;;;12.80;99.90;;;;;;10133075;28;20034;-57
2022/12/24 06:41:49;;;;;;;5.97;1.80;;;12.80;99.90;;;;;;10137577;28;20033;-56
2022/12/24 06:46:40;;;;;;;8.05;2.08;;;12.80;99.90;;;;;;10135371;28;20584;-57
2022/12/24 06:51:34;;;;;;;6.75;2.03;;;12.80;99.90;;;;;;10136719;28;20025;-55
2022/12/24 06:56:25;;;;;;;6.38;1.90;;;12.90;99.90;;;;;;10136928;28;20039;-60
2022/12/24 07:01:18;;;;;;;8.75;2.05;;;13.00;99.90;;;;;;10134952;28;20264;-61
2022/12/24 07:06:27;;;;;;;6.38;2.72;;;13.00;99.90;;;;;;10136423;28;20033;-63
2022/12/24 07:11:18;;;;;;;5.82;1.67;;;13.10;99.90;;;;;;10112778;28;20036;-57
2022/12/24 07:16:09;;;;;;;6.05;2.17;;;13.00;99.90;;;;;;10143894;28;20376;-65
2022/12/24 07:21:01;;;;;;;5.18;1.50;;;13.00;99.90;;;;;;10142670;28;20162;-60
2022/12/24 07:25:52;;;;;;;4.78;1.65;;;13.10;99.90;;;;;;10143666;28;20064;-60
2022/12/24 07:30:43;;;;;;;9.02;1.75;;;13.10;99.90;;;;;;10143180;28;20074;-60
2022/12/24 07:35:34;;;;;;;4.70;1.50;;;13.20;99.90;;;;;;10142991;28;20460;-59
2022/12/24 07:40:24;;;;;;;7.82;1.67;;;13.10;99.90;;;;;;10142763;28;20096;-61
2022/12/24 07:45:15;;;;;;;9.05;2.00;;;13.10;99.90;;;;;;10137834;28;20040;-67
2022/12/24 07:50:07;;;;;;;5.10;1.10;;;13.20;99.90;;;;;;10145348;28;20055;-68
2022/12/24 07:54:57;;;;;;;5.35;1.45;;;13.20;99.90;;;;;;10136063;28;20566;-55
2022/12/24 07:59:48;;;;;;;6.35;2.78;;;13.30;99.90;;;;;;10137444;28;20115;-55
2022/12/24 08:04:38;;;;;;;7.30;2.72;;;13.20;99.90;;;;;;10123322;28;20052;-61
2022/12/24 08:09:36;;;;;;;5.82;1.65;;;13.20;99.90;;;;;;10123645;28;20085;-63
2022/12/24 08:14:30;;;;;;;8.02;2.22;;;13.30;99.90;;;;;;10141137;28;20032;-67
2022/12/24 08:19:21;;;;;;;9.90;2.30;;;13.30;99.90;;;;;;10139163;28;20089;-65
2022/12/24 08:24:11;;;;;;;3.75;2.03;;;13.30;99.90;;;;;;10149948;28;20119;-55
2022/12/24 08:29:03;;;;;;;3.67;1.67;;;13.30;99.90;;;;;;10136498;28;20107;-63
2022/12/24 08:33:54;;;;;;;6.80;3.30;;;13.40;99.90;;;;;;10141562;28;20090;-62
2022/12/24 08:38:45;;;;;;;5.75;2.00;;;13.50;99.90;;;;;;10139602;28;20016;-64
2022/12/24 08:43:35;;;;;;;2.85;1.45;;;13.60;99.90;;;;;;10136143;28;20040;-70
2022/12/24 08:48:26;;;;;;;8.85;1.55;;;13.60;99.90;;;;;;10140957;28;20032;-62
2022/12/24 08:53:17;;;;;;;7.88;1.70;;;13.50;99.90;;;;;;10140369;28;20036;-60
2022/12/24 08:58:07;;;;;;;7.47;1.92;;;13.60;99.90;;;;;;10141427;28;20572;-62
2022/12/24 09:02:58;;;;;;;7.82;2.22;;;13.50;99.90;;;;;;10140533;28;20047;-56
2022/12/24 09:07:48;;;;;;;4.78;1.58;;;13.50;99.90;;;;;;10131366;28;20588;-63
2022/12/24 09:12:39;;;;;;;5.13;2.33;;;13.50;99.90;;;;;;10138022;28;20031;-62
2022/12/24 09:17:30;;;;;;;8.65;1.90;;;13.40;99.90;;;;;;10140977;28;20039;-58
2022/12/24 09:22:21;;;;;;;9.35;2.47;;;13.40;99.90;;;;;;10138585;28;20024;-57
2022/12/24 09:27:11;;;;;;;6.57;1.70;;;13.60;99.90;;;;;;10139407;28;20434;-61
2022/12/24 09:32:02;;;;;;;6.10;1.92;;;13.50;99.90;;;;;;10138612;28;20025;-62
2022/12/24 09:36:53;;;;;;;7.07;2.03;;;13.50;99.90;;;;;;10140074;28;20028;-58
2022/12/24 09:42:04;;;;;;;6.63;2.20;;;13.30;99.90;;;;;;10138682;28;20024;-60
2022/12/24 09:46:58;;;;;;;12.80;2.47;;;13.30;99.90;;;;;;10138756;28;20093;-57
2022/12/24 09:52:09;;;;;;;7.72;1.85;;;13.30;99.90;;;;;;10134174;28;20035;-57
2022/12/24 09:57:11;;;;;;;4.05;1.50;;;13.30;99.90;;;;;;10134523;28;20395;-62
2022/12/24 10:02:08;;;;;;;5.53;1.90;;;13.30;99.90;;;;;;10137529;28;20128;-62
2022/12/24 10:07:26;;;;;;;4.25;2.30;;;13.50;99.90;;;;;;10132044;28;20715;-67
2022/12/24 10:12:24;;;;;;;4.40;2.10;;;13.60;99.90;;;;;;10132679;28;20378;-66
2022/12/24 10:17:39;;;;;;;7.78;2.00;;;13.60;99.90;;;;;;10137513;28;20086;-62
2022/12/24 10:22:51;;;;;;;9.13;1.80;;;13.50;99.90;;;;;;10137822;28;20026;-66
2022/12/24 10:27:42;;;;;;;8.82;1.83;;;13.70;99.90;;;;;;10137740;28;20281;-55
2022/12/24 10:32:35;;;;;;;6.68;2.15;;;13.70;99.90;;;;;;10132913;28;20117;-61
2022/12/24 10:37:28;;;;;;;7.05;1.85;;;13.60;99.90;;;;;;10138209;28;20082;-66
2022/12/24 10:42:22;;;;;;;8.77;2.45;;;13.70;99.90;;;;;;10136966;28;20028;-69
2022/12/24 10:47:13;;;;;;;9.70;1.77;;;13.70;99.90;;;;;;10128687;28;20036;-63
2022/12/24 10:52:05;;;;;;;8.00;1.70;;;13.80;99.90;;;;;;10136628;28;20368;-63
2022/12/24 10:56:58;;;;;;;12.00;2.17;;;13.90;99.90;;;;;;10137590;28;20607;-59
2022/12/24 11:01:50;;;;;;;6.55;2.17;;;14.00;99.90;;;;;;10137277;28;20094;-60
2022/12/24 11:07:01;;;;;;;8.75;2.47;;;14.10;99.90;;;;;;10138342;28;20444;-55
2022/12/24 11:11:52;;;;;;;5.05;2.35;;;14.30;99.90;;;;;;10135156;28;20024;-61
2022/12/24 11:16:54;;;;;;;5.43;2.05;;;14.30;99.90;;;;;;10131911;28;20024;-59
2022/12/24 11:21:45;;;;;;;4.28;1.80;;;14.40;99.90;;;;;;10137398;28;20025;-59
2022/12/24 11:26:35;;;;;;;5.13;1.95;;;14.30;99.90;;;;;;10134885;28;20036;-57
2022/12/24 11:31:28;;;;;;;7.10;2.50;;;14.20;99.90;;;;;;10134109;28;20024;-59
2022/12/24 11:36:23;;;;;;;11.48;3.60;;;14.20;99.90;;;;;;10136509;28;20033;-60
2022/12/24 11:41:14;;;;;;;6.07;1.42;;;14.20;99.90;;;;;;10124822;28;20025;-64
2022/12/24 11:46:30;;;;;;;5.72;2.45;;;14.10;99.90;;;;;;10135556;28;20052;-67
2022/12/24 11:51:26;;;;;;;5.03;1.77;;;14.10;99.90;;;;;;10116352;28;20044;-60
2022/12/24 11:56:37;;;;;;;9.98;1.90;;;14.20;99.90;;;;;;10135878;28;20119;-65
2022/12/24 12:01:40;;;;;;;3.95;1.85;;;14.20;99.90;;;;;;10142202;28;20044;-65
2022/12/24 12:06:59;;;;;;;5.20;1.85;;;14.20;99.90;;;;;;10138998;28;20059;-70
2022/12/24 12:11:59;;;;;;;5.72;2.00;;;14.30;99.90;;;;;;10122823;28;20036;-64
2022/12/24 12:17:02;;;;;;;5.90;1.95;;;14.20;99.90;;;;;;10137771;28;20040;-67
2022/12/24 12:21:53;;;;;;;5.45;1.98;;;14.10;99.90;;;;;;10147956;28;20500;-70
2022/12/24 12:26:45;;;;;;;8.20;2.25;;;14.20;99.90;;;;;;10141913;28;20039;-61
2022/12/24 12:31:47;;;;;;;4.70;2.00;;;14.10;99.90;;;;;;10134975;28;20039;-56
2022/12/24 12:37:05;;;;;;;5.88;2.55;;;14.10;99.90;;;;;;10140937;28;20051;-63
2022/12/24 12:42:32;;;;;;;5.60;2.80;;;14.10;99.90;;;;;;10140104;28;20071;-68
2022/12/24 12:47:38;;;;;;;4.70;2.22;;;14.10;99.90;;;;;;10141695;28;20036;-68
2022/12/24 12:52:48;;;;;;;4.03;1.88;;;14.20;99.90;;;;;;10138761;28;20549;-66
2022/12/24 12:57:39;;;;;;;7.75;1.95;;;14.20;99.90;;;;;;10134858;28;20077;-68
2022/12/24 13:02:44;;;;;;;7.05;2.45;;;14.20;99.90;;;;;;10139937;28;20043;-63
2022/12/24 13:08:09;;;;;;;7.73;2.60;;;14.20;99.90;;;;;;10136205;28;20419;-69
2022/12/24 13:13:03;;;;;;;4.68;1.75;;;14.20;99.90;;;;;;10135009;28;20289;-60
2022/12/24 13:18:24;;;;;;;6.68;2.78;;;14.20;99.90;;;;;;10139067;28;20056;-61
2022/12/24 13:23:20;;;;;;;6.05;2.30;;;14.30;99.90;;;;;;10135644;28;20112;-59
2022/12/24 13:28:21;;;;;;;9.43;3.38;;;14.30;99.90;;;;;;10138372;28;20085;-66
2022/12/24 13:33:32;;;;;;;5.05;2.30;;;14.20;99.90;;;;;;10132216;28;20453;-67
2022/12/24 13:38:26;;;;;;;4.55;2.03;;;14.30;99.90;;;;;;10125349;28;20043;-68
2022/12/24 13:43:16;;;;;;;8.23;2.20;;;14.40;99.90;;;;;;10138936;28;20078;-65
2022/12/24 13:48:10;;;;;;;5.43;2.03;;;14.60;99.90;;;;;;10138115;28;20487;-67
2022/12/24 13:53:01;;;;;;;3.25;1.80;;;14.60;99.90;;;;;;10144682;28;20410;-64
2022/12/24 13:57:56;;;;;;;5.90;2.15;;;14.60;99.90;;;;;;10138482;28;20025;-63
2022/12/24 14:03:11;;;;;;;4.10;1.77;;;14.50;99.90;;;;;;10137558;28;20524;-67
2022/12/24 14:08:13;;;;;;;10.73;2.00;;;14.40;99.90;;;;;;10130460;28;20051;-69
2022/12/24 14:13:08;;;;;;;5.22;2.17;;;14.20;99.90;;;;;;10132929;28;20047;-65
2022/12/24 14:17:59;;;;;;;4.78;2.03;;;14.10;99.90;;;;;;10130328;28;20056;-71
2022/12/24 14:22:51;;;;;;;7.43;2.17;;;14.00;99.90;;;;;;10137434;28;20086;-71
2022/12/24 14:27:53;;;;;;;9.50;3.50;;;14.00;99.90;;;;;;10137291;28;20044;-69
2022/12/24 14:32:44;;;;;;;3.75;1.83;;;13.90;99.90;;;;;;10136632;28;20029;-71
2022/12/24 14:37:36;;;;;;;5.63;2.08;;;13.90;99.90;;;;;;10136605;28;20063;-66
2022/12/24 14:43:20;;;;;;;6.05;2.13;;;13.90;99.90;;;;;;10135935;28;20024;-65
2022/12/24 14:48:24;;;;;;;4.75;2.33;;;13.80;99.90;;;;;;10090237;28;20056;-70
2022/12/24 14:53:25;;;;;;;7.53;2.05;;;13.70;99.90;;;;;;10127873;28;20104;-58
2022/12/24 14:58:18;;;;;;;3.85;2.10;;;13.70;99.90;;;;;;10135475;28;20075;-57
2022/12/24 15:03:14;;;;;;;6.15;1.55;;;13.70;99.90;;;;;;10130661;28;20099;-56
2022/12/24 15:08:09;;;;;;;;;;;13.60;99.90;;;;;;10128887;28;20233;-57
2022/12/24 15:13:26;;;;;;;8.48;2.80;;;13.60;99.90;;;;;;10130388;28;19910;-59
2022/12/24 15:18:22;;;;;;;3.95;1.73;;;13.50;99.90;;;;;;10136544;28;20023;-55
2022/12/24 15:23:24;;;;;;;4.20;1.60;;;13.50;99.90;;;;;;10135886;28;20032;-58
2022/12/24 15:28:19;;;;;;;3.55;1.65;;;13.50;99.90;;;;;;10132196;28;20487;-56
2022/12/24 15:33:10;;;;;;;4.22;1.38;;;13.60;99.90;;;;;;10143146;28;20079;-57
2022/12/24 15:38:05;;;;;;;3.67;1.85;;;13.50;99.90;;;;;;10142700;28;20036;-56
2022/12/24 15:42:55;;;;;;;8.57;2.10;;;13.40;99.90;;;;;;10137975;28;20081;-58
2022/12/24 15:48:05;;;;;;;2.80;1.85;;;13.40;99.90;;;;;;10158270;28;20516;-59
2022/12/24 15:53:13;;;;;;;4.63;1.90;;;13.30;99.90;;;;;;10140336;28;20390;-59
2022/12/24 15:58:24;;;;;;;4.40;1.77;;;13.30;99.90;;;;;;10142155;28;20021;-66
2022/12/24 16:03:22;;;;;;;3.53;1.45;;;13.20;99.90;;;;;;10139910;28;20441;-61
2022/12/24 16:08:12;;;;;;;3.55;1.90;;;13.30;99.90;;;;;;10125325;28;20098;-61
2022/12/24 16:13:22;;;;;;;3.63;1.40;;;13.20;99.90;;;;;;10132934;28;20486;-58
2022/12/24 16:18:20;;;;;;;3.92;1.55;;;13.20;99.90;;;;;;10136639;28;20259;-58
2022/12/24 16:23:23;;;;;;;4.88;1.83;;;13.20;99.90;;;;;;10133569;28;20041;-57
2022/12/24 16:28:14;;;;;;;2.25;1.77;;;13.20;99.90;;;;;;10141107;28;20402;-58
2022/12/24 16:33:11;;;;;;;6.20;1.77;;;13.20;99.90;;;;;;10141076;28;20036;-58
2022/12/24 16:38:02;;;;;;;5.82;2.45;;;13.10;99.90;;;;;;10140371;28;20386;-55
2022/12/24 16:48:06;;;;;;;4.50;1.52;;;13.00;99.90;;;;;;10139369;28;20131;-63
2022/12/24 16:52:57;;;;;;;3.65;1.90;;;13.00;99.90;;;;;;10138921;28;20056;-59
2022/12/24 16:57:48;;;;;;;3.03;1.73;;;12.90;99.90;;;;;;10139691;28;20114;-57
2022/12/24 17:02:38;;;;;;;4.85;1.58;;;12.90;99.90;;;;;;10139701;28;20043;-58
2022/12/24 17:07:29;;;;;;;3.22;1.58;;;12.90;99.90;;;;;;10132509;28;20064;-57
2022/12/24 17:12:20;;;;;;;3.85;1.83;;;13.00;99.90;;;;;;10134353;28;20473;-59
2022/12/24 17:17:28;;;;;;;5.93;2.13;;;12.90;99.90;;;;;;10139634;28;20037;-56
2022/12/24 17:22:19;;;;;;;3.75;2.00;;;12.90;99.90;;;;;;10130554;28;20047;-56
2022/12/24 17:27:10;;;;;;;5.22;1.92;;;12.90;99.90;;;;;;10138826;28;20090;-56
2022/12/24 17:32:01;;;;;;;3.70;2.28;;;12.90;99.90;;;;;;10138139;28;20078;-60
2022/12/24 17:36:51;;;;;;;3.55;1.95;;;12.90;99.90;;;;;;10136935;28;20128;-56
2022/12/24 17:41:42;;;;;;;3.13;1.73;;;12.90;99.90;;;;;;10138336;28;20732;-57
2022/12/24 17:46:33;;;;;;;1.75;1.40;;;12.80;99.90;;;;;;10138796;28;20040;-55
2022/12/24 17:51:24;;;;;;;6.80;3.28;;;12.80;99.90;;;;;;10136037;28;20374;-57
2022/12/24 17:56:15;;;;;;;9.70;4.20;;;12.80;99.90;;;;;;10138034;28;20491;-56
2022/12/24 18:01:10;;;;;;;3.80;2.92;;;12.80;99.90;;;;;;10137172;28;20041;-58
2022/12/24 18:06:06;;;;;;;5.40;2.33;;;12.80;99.90;;;;;;10130891;28;20042;-60
2022/12/24 18:10:57;;;;;;;2.85;1.90;;;12.70;99.90;;;;;;10129439;28;20517;-59
2022/12/24 18:15:48;;;;;;;3.78;2.03;;;12.70;99.90;;;;;;10134682;28;20128;-55
2022/12/24 18:20:38;;;;;;;5.57;2.78;;;12.70;99.90;;;;;;10136808;28;20382;-60
2022/12/24 18:25:29;;;;;;;5.07;2.55;;;12.70;99.90;;;;;;10136436;28;20139;-65
2022/12/24 18:30:20;;;;;;;7.00;2.90;;;12.70;99.90;;;;;;10136594;28;20017;-58
2022/12/24 18:35:11;;;;;;;5.38;3.63;;;12.60;99.90;;;;;;10136839;28;20085;-59
2022/12/24 18:40:03;;;;;;;2.58;1.70;;;12.60;99.90;;;;;;10136559;28;20023;-56
2022/12/24 18:44:54;;;;;;;5.68;2.38;;;12.60;99.90;;;;;;10136058;28;20097;-59
2022/12/24 18:49:44;;;;;;;4.05;2.22;;;12.60;99.90;;;;;;10136381;28;20029;-60
2022/12/24 18:54:39;;;;;;;5.15;2.13;;;12.70;99.90;;;;;;10136340;28;20040;-57
2022/12/24 18:59:30;;;;;;;7.88;2.75;;;12.60;99.90;;;;;;10133512;28;20041;-59
2022/12/24 19:04:20;;;;;;;5.63;3.45;;;12.60;99.90;;;;;;10135146;28;20794;-55
2022/12/24 19:09:11;;;;;;;7.78;3.75;;;12.60;99.90;;;;;;10127936;28;20021;-57
2022/12/24 19:14:03;;;;;;;4.90;2.63;;;12.50;99.90;;;;;;10130582;28;20033;-56
2022/12/24 19:18:54;;;;;;;5.07;1.65;;;12.50;99.90;;;;;;10135410;28;20191;-57
2022/12/24 19:23:45;;;;;;;3.35;1.98;;;12.30;99.90;;;;;;10134729;28;20561;-62
2022/12/24 19:28:36;;;;;;;3.38;1.48;;;12.30;99.90;;;;;;10135298;28;20112;-59
2022/12/24 19:33:28;;;;;;;1.70;1.08;;;12.30;99.90;;;;;;10136171;28;20070;-62
2022/12/24 19:38:19;;;;;;;1.80;1.00;;;12.30;99.90;;;;;;10136237;28;20016;-58
2022/12/24 19:43:09;;;;;;;3.10;1.52;;;12.40;99.90;;;;;;10137428;28;20027;-58
2022/12/24 19:48:00;;;;;;;2.22;1.15;;;12.40;99.90;;;;;;10136849;28;20052;-55
2022/12/24 19:52:51;;;;;;;5.68;1.23;;;12.40;99.90;;;;;;10138982;28;20024;-55
2022/12/24 19:57:42;;;;;;;2.45;1.20;;;12.50;99.90;;;;;;10129338;28;20039;-59
2022/12/24 20:02:33;;;;;;;2.13;1.20;;;12.40;99.90;;;;;;10134508;28;20044;-63
2022/12/24 20:07:24;;;;;;;2.53;1.55;;;12.40;99.90;;;;;;10116779;28;20041;-57
2022/12/24 20:12:14;;;;;;;3.20;1.38;;;12.40;99.90;;;;;;10118026;28;20566;-55
2022/12/24 20:17:05;;;;;;;4.70;2.58;;;12.40;99.90;;;;;;10127075;28;20209;-57
2022/12/24 20:21:55;;;;;;;2.33;1.73;;;12.40;99.90;;;;;;10136727;28;20032;-56
2022/12/24 20:26:46;;;;;;;3.00;1.65;;;12.30;99.90;;;;;;10138162;28;20139;-65
2022/12/24 20:31:37;;;;;;;2.38;0.98;;;12.20;99.90;;;;;;10141849;28;20028;-56
2022/12/24 20:36:29;;;;;;;3.53;1.00;;;12.20;99.90;;;;;;10139204;28;20020;-58
2022/12/24 20:41:22;;;;;;;5.38;1.23;;;12.20;99.90;;;;;;10140875;28;20025;-60
2022/12/24 20:46:13;;;;;;;3.75;1.98;;;12.20;99.90;;;;;;10141334;28;20120;-61
2022/12/24 20:51:06;;;;;;;2.10;1.10;;;12.20;99.90;;;;;;10138858;28;20115;-59
2022/12/24 20:55:57;;;;;;;4.25;1.63;;;12.10;99.90;;;;;;10140704;28;20459;-58
2022/12/24 21:00:48;;;;;;;9.90;5.03;;;12.10;99.90;;;;;;10149049;28;20052;-64
2022/12/24 21:05:40;;;;;;;5.07;2.00;;;12.10;99.90;;;;;;10124773;28;20048;-60
2022/12/24 21:10:31;;;;;;;5.07;2.22;;;12.00;99.90;;;;;;10124044;28;20119;-55
2022/12/24 21:15:24;;;;;;;3.90;1.88;;;12.00;99.90;;;;;;10127390;28;20756;-62
2022/12/24 21:20:16;;;;;;;4.13;1.55;;;11.90;99.90;;;;;;10124269;28;20024;-66
2022/12/24 21:25:07;;;;;;;4.60;1.85;;;12.00;99.90;;;;;;10131145;28;20032;-69
2022/12/24 21:29:58;;;;;;;2.63;2.00;;;12.00;99.90;;;;;;10138427;28;20482;-60
2022/12/24 21:34:49;;;;;;;7.13;2.22;;;12.00;99.90;;;;;;10133859;28;20033;-69
2022/12/24 21:39:39;;;;;;;5.03;1.70;;;12.00;99.90;;;;;;10139098;28;20032;-58
2022/12/24 21:44:30;;;;;;;3.30;1.50;;;11.90;99.90;;;;;;10138882;28;20499;-62
2022/12/24 21:54:30;;;;;;;2.97;1.58;;;12.00;99.90;;;;;;10134186;28;20044;-65
2022/12/24 21:59:21;;;;;;;2.40;1.58;;;12.00;99.90;;;;;;10138598;28;20516;-67
2022/12/24 22:04:11;;;;;;;5.03;2.30;;;11.90;99.90;;;;;;10136401;28;20037;-62
2022/12/24 22:14:11;;;;;;;5.90;3.15;;;11.90;99.90;;;;;;10137288;28;20101;-57
2022/12/24 22:19:02;;;;;;;5.22;3.00;;;11.90;99.90;;;;;;10137732;28;20089;-58
2022/12/24 22:23:52;;;;;;;4.30;2.40;;;12.00;99.90;;;;;;10137196;28;20475;-58
2022/12/24 22:28:43;;;;;;;6.95;2.80;;;12.00;99.90;;;;;;10133034;28;20032;-67
2022/12/24 22:33:35;;;;;;;3.63;2.75;;;11.90;99.90;;;;;;10133704;28;20386;-64
2022/12/24 22:38:25;;;;;;;4.43;2.55;;;11.90;99.90;;;;;;10136815;28;20398;-61
2022/12/24 22:43:16;;;;;;;7.25;3.17;;;11.90;99.90;;;;;;10133528;28;20039;-64
2022/12/24 22:48:06;;;;;;;5.78;3.35;;;11.80;99.90;;;;;;10136757;28;20086;-65
2022/12/24 22:52:57;;;;;;;5.20;2.30;;;11.80;99.90;;;;;;10137010;28;20028;-63
2022/12/24 22:57:48;;;;;;;7.70;3.03;;;11.80;99.90;;;;;;10134148;28;20024;-64
2022/12/24 23:02:39;;;;;;;5.35;2.65;;;11.90;99.90;;;;;;10137142;28;20455;-64
2022/12/24 23:07:29;;;;;;;4.80;2.47;;;12.00;99.90;;;;;;10133884;28;20518;-55
2022/12/24 23:14:55;;;;;;;2.92;1.98;;;12.00;99.90;;;;;;10130970;28;20097;-68
2022/12/24 23:17:30;;;;;;;4.45;2.28;;;11.90;99.90;;;;;;10135624;28;20106;-64
2022/12/24 23:22:21;;;;;;;4.43;1.80;;;11.90;99.90;;;;;;10136279;28;20086;-57
2022/12/24 23:27:11;;;;;;;3.03;1.88;;;11.90;99.90;;;;;;10131194;28;20095;-57
2022/12/24 23:32:02;;;;;;;3.53;1.73;;;11.90;99.90;;;;;;10135856;28;20495;-57
2022/12/24 23:36:53;;;;;;;5.45;2.47;;;12.00;99.90;;;;;;10134037;28;20028;-62
2022/12/24 23:41:43;;;;;;;6.35;2.05;;;11.90;99.90;;;;;;10135745;28;20021;-65
2022/12/24 23:46:34;;;;;;;4.82;2.22;;;11.90;99.90;;;;;;10150904;28;20547;-66
2022/12/24 23:51:27;;;;;;;5.57;1.90;;;11.90;99.90;;;;;;10138144;28;20029;-66
2022/12/24 23:56:19;;;;;;;2.95;1.80;;;11.90;99.90;;;;;;10142723;28;20060;-67
